createdAt,value
2018-07-17T00:00:18.281Z,19.70
2018-07-17T00:02:46.869Z,19.70
2018-07-17T00:05:15.268Z,19.70
2018-07-17T00:07:43.685Z,19.60
2018-07-17T00:10:12.120Z,19.60
2018-07-17T00:12:40.662Z,19.50
2018-07-17T00:15:09.065Z,19.50
2018-07-17T00:17:37.837Z,19.50
2018-07-17T00:20:06.281Z,19.50
2018-07-17T00:22:34.684Z,19.50
2018-07-17T00:25:03.316Z,19.50
2018-07-17T00:27:31.774Z,19.40
2018-07-17T00:30:00.213Z,19.40
2018-07-17T00:32:28.609Z,19.30
2018-07-17T00:34:57.044Z,19.30
2018-07-17T00:37:25.490Z,19.30
2018-07-17T00:39:53.947Z,19.30
2018-07-17T00:42:22.373Z,19.30
2018-07-17T00:44:51.040Z,19.30
2018-07-17T00:47:19.463Z,19.30
2018-07-17T00:49:47.832Z,19.30
2018-07-17T00:52:16.276Z,19.30
2018-07-17T00:54:44.715Z,19.30
2018-07-17T00:57:13.187Z,19.30
2018-07-17T00:59:41.632Z,19.30
2018-07-17T01:02:15.468Z,19.20
2018-07-17T01:04:49.168Z,19.20
2018-07-17T01:07:23.142Z,19.20
2018-07-17T01:09:56.880Z,19.20
2018-07-17T01:12:24.481Z,19.20
2018-07-17T01:15:03.624Z,19.20
2018-07-17T01:17:33.057Z,19.20
2018-07-17T01:20:01.437Z,19.20
2018-07-17T01:22:29.884Z,19.20
2018-07-17T01:24:58.429Z,19.20
2018-07-17T01:27:26.863Z,19.20
2018-07-17T01:29:55.272Z,19.10
2018-07-17T01:32:23.699Z,19.10
2018-07-17T01:34:52.088Z,19.00
2018-07-17T01:37:20.505Z,18.90
2018-07-17T01:39:49.080Z,18.90
2018-07-17T01:42:17.480Z,18.90
2018-07-17T01:44:45.905Z,18.80
2018-07-17T01:47:14.344Z,18.70
2018-07-17T01:49:42.823Z,18.70
2018-07-17T01:52:11.217Z,18.60
2018-07-17T01:54:39.596Z,18.60
2018-07-17T01:57:07.993Z,18.60
2018-07-17T02:02:04.504Z,18.60
2018-07-17T02:04:32.913Z,18.60
2018-07-17T02:07:01.343Z,18.60
2018-07-17T02:09:29.745Z,18.60
2018-07-17T02:11:58.212Z,18.70
2018-07-17T02:14:26.660Z,18.70
2018-07-17T02:16:55.036Z,18.80
2018-07-17T02:19:23.495Z,18.80
2018-07-17T02:21:51.906Z,18.90
2018-07-17T02:24:20.313Z,18.90
2018-07-17T02:26:48.709Z,18.90
2018-07-17T02:29:17.148Z,18.90
2018-07-17T02:31:45.584Z,18.90
2018-07-17T02:34:13.996Z,18.90
2018-07-17T02:36:42.427Z,18.90
2018-07-17T02:39:10.899Z,18.90
2018-07-17T02:41:39.399Z,18.90
2018-07-17T02:44:07.783Z,18.90
2018-07-17T02:46:36.185Z,18.80
2018-07-17T02:49:04.736Z,18.80
2018-07-17T02:51:33.163Z,18.70
2018-07-17T02:54:01.562Z,18.60
2018-07-17T02:56:29.972Z,18.60
2018-07-17T02:58:58.355Z,18.50
2018-07-17T03:01:26.794Z,18.40
2018-07-17T03:03:55.313Z,18.40
2018-07-17T03:06:23.847Z,18.40
2018-07-17T03:08:52.339Z,18.30
2018-07-17T03:11:20.821Z,18.30
2018-07-17T03:13:49.248Z,18.30
2018-07-17T03:16:17.897Z,18.30
2018-07-17T03:18:46.464Z,18.30
2018-07-17T03:23:43.156Z,18.20
2018-07-17T03:26:11.580Z,18.20
2018-07-17T03:28:40.074Z,18.10
2018-07-17T03:31:08.969Z,18.10
2018-07-17T03:33:37.360Z,18.10
2018-07-17T03:36:05.792Z,18.20
2018-07-17T03:38:34.285Z,18.20
2018-07-17T03:41:02.714Z,18.10
2018-07-17T03:43:31.095Z,18.20
2018-07-17T03:45:59.484Z,18.20
2018-07-17T03:48:27.869Z,18.20
2018-07-17T03:50:56.371Z,18.20
2018-07-17T03:53:24.804Z,18.20
2018-07-17T03:55:53.200Z,18.20
2018-07-17T03:58:21.626Z,18.20
2018-07-17T04:00:50.036Z,18.20
2018-07-17T04:03:18.441Z,18.20
2018-07-17T04:05:46.868Z,18.20
2018-07-17T04:08:15.244Z,18.20
2018-07-17T04:10:43.640Z,18.30
2018-07-17T04:13:12.017Z,18.40
2018-07-17T04:15:40.432Z,18.40
2018-07-17T04:18:09.044Z,18.40
2018-07-17T04:20:37.419Z,18.40
2018-07-17T04:23:06.413Z,18.40
2018-07-17T04:25:34.852Z,18.50
2018-07-17T04:28:03.364Z,18.50
2018-07-17T04:30:31.847Z,18.60
2018-07-17T04:33:00.280Z,18.50
2018-07-17T04:35:28.704Z,18.50
2018-07-17T04:37:57.065Z,18.50
2018-07-17T04:40:25.464Z,18.50
2018-07-17T04:42:53.896Z,18.50
2018-07-17T04:45:22.293Z,18.50
2018-07-17T04:47:50.736Z,18.50
2018-07-17T04:50:19.192Z,18.50
2018-07-17T04:52:47.713Z,18.60
2018-07-17T04:55:16.152Z,18.60
2018-07-17T04:57:44.632Z,18.60
2018-07-17T05:00:13.136Z,18.60
2018-07-17T05:02:41.556Z,18.60
2018-07-17T05:05:09.966Z,18.70
2018-07-17T05:07:38.384Z,18.70
2018-07-17T05:10:07.286Z,18.70
2018-07-17T05:12:35.705Z,18.80
2018-07-17T05:15:04.401Z,18.90
2018-07-17T05:17:32.912Z,19.00
2018-07-17T05:20:01.365Z,19.00
2018-07-17T05:22:29.813Z,19.10
2018-07-17T05:24:58.240Z,19.20
2018-07-17T05:27:26.665Z,19.30
2018-07-17T05:29:55.270Z,19.40
2018-07-17T05:32:23.774Z,19.50
2018-07-17T05:34:52.242Z,20.20
2018-07-17T05:37:20.613Z,21.40
2018-07-17T05:39:49.184Z,22.60
2018-07-17T05:42:17.758Z,23.70
2018-07-17T05:44:46.379Z,24.70
2018-07-17T05:47:14.813Z,25.30
2018-07-17T05:49:43.265Z,25.20
2018-07-17T05:52:11.775Z,25.00
2018-07-17T05:54:40.204Z,25.20
2018-07-17T05:57:08.913Z,25.20
2018-07-17T05:59:37.317Z,25.30
2018-07-17T06:02:05.823Z,25.50
2018-07-17T06:04:34.300Z,25.60
2018-07-17T06:07:02.802Z,25.50
2018-07-17T06:09:31.221Z,25.70
2018-07-17T06:11:59.673Z,26.00
2018-07-17T06:14:28.081Z,26.50
2018-07-17T06:16:56.657Z,26.50
2018-07-17T06:19:25.126Z,26.70
2018-07-17T06:21:53.584Z,26.80
2018-07-17T06:24:22.002Z,27.20
2018-07-17T06:26:50.495Z,27.50
2018-07-17T06:29:18.923Z,28.00
2018-07-17T06:31:47.388Z,27.90
2018-07-17T06:34:15.801Z,27.90
2018-07-17T06:36:44.209Z,28.00
2018-07-17T06:39:12.604Z,28.10
2018-07-17T06:41:40.965Z,28.20
2018-07-17T06:44:09.356Z,28.30
2018-07-17T06:46:37.762Z,28.10
2018-07-17T06:49:06.164Z,27.90
2018-07-17T06:51:34.726Z,28.00
2018-07-17T06:54:03.248Z,27.50
2018-07-17T06:56:31.650Z,26.90
2018-07-17T06:59:00.308Z,26.70
2018-07-17T07:01:28.750Z,26.40
2018-07-17T07:03:57.259Z,25.80
2018-07-17T07:06:25.712Z,25.40
2018-07-17T07:08:54.179Z,24.90
2018-07-17T07:11:22.722Z,24.90
2018-07-17T07:13:51.145Z,24.60
2018-07-17T07:16:19.856Z,24.50
2018-07-17T07:21:16.506Z,24.30
2018-07-17T07:23:44.937Z,24.50
2018-07-17T07:26:13.746Z,24.50
2018-07-17T07:28:42.168Z,24.70
2018-07-17T07:31:10.733Z,24.80
2018-07-17T07:33:39.184Z,24.90
2018-07-17T07:36:07.633Z,25.10
2018-07-17T07:38:36.073Z,25.10
2018-07-17T07:41:04.548Z,25.10
2018-07-17T07:43:33.080Z,25.00
2018-07-17T07:46:01.557Z,25.20
2018-07-17T07:48:29.956Z,25.40
2018-07-17T07:50:58.408Z,25.50
2018-07-17T07:53:26.946Z,25.50
2018-07-17T07:55:55.545Z,25.60
2018-07-17T07:58:23.973Z,25.80
2018-07-17T08:00:52.464Z,25.90
2018-07-17T08:03:20.880Z,25.90
2018-07-17T08:05:49.419Z,25.60
2018-07-17T08:08:17.953Z,25.60
2018-07-17T08:10:46.585Z,25.60
2018-07-17T08:13:14.992Z,25.50
2018-07-17T08:15:43.449Z,25.50
2018-07-17T08:18:11.886Z,25.60
2018-07-17T08:20:40.342Z,25.60
2018-07-17T08:23:08.932Z,25.20
2018-07-17T08:25:37.369Z,25.30
2018-07-17T08:28:06.237Z,25.20
2018-07-17T08:30:34.659Z,25.20
2018-07-17T08:33:03.176Z,25.30
2018-07-17T08:35:31.620Z,25.50
2018-07-17T08:38:00.070Z,25.60
2018-07-17T08:40:28.642Z,25.50
2018-07-17T08:42:57.058Z,25.70
2018-07-17T08:45:25.512Z,25.40
2018-07-17T08:47:54.046Z,25.60
2018-07-17T08:50:22.497Z,25.90
2018-07-17T08:52:50.948Z,25.90
2018-07-17T08:55:19.368Z,26.00
2018-07-17T08:57:47.828Z,26.00
2018-07-17T09:00:16.312Z,26.00
2018-07-17T09:02:44.756Z,26.00
2018-07-17T09:05:13.248Z,26.00
2018-07-17T09:07:41.749Z,25.90
2018-07-17T09:10:10.326Z,26.00
2018-07-17T09:12:38.732Z,26.20
2018-07-17T09:15:07.376Z,26.30
2018-07-17T09:17:35.968Z,26.30
2018-07-17T09:20:05.065Z,26.30
2018-07-17T09:22:33.482Z,26.30
2018-07-17T09:25:01.993Z,26.30
2018-07-17T09:27:30.488Z,26.40
2018-07-17T09:29:59.141Z,26.60
2018-07-17T09:32:27.580Z,26.40
2018-07-17T09:34:56.327Z,26.50
2018-07-17T09:37:24.724Z,26.50
2018-07-17T09:39:53.137Z,26.40
2018-07-17T09:42:21.536Z,26.70
2018-07-17T09:44:50.060Z,26.80
2018-07-17T09:47:18.476Z,26.90
2018-07-17T09:49:46.873Z,27.00
2018-07-17T09:52:15.371Z,26.80
2018-07-17T09:54:44.008Z,27.40
2018-07-17T09:57:12.506Z,27.50
2018-07-17T09:59:41.011Z,27.30
2018-07-17T10:02:14.764Z,27.50
2018-07-17T10:04:43.456Z,27.50
2018-07-17T10:07:11.934Z,27.50
2018-07-17T10:09:40.340Z,27.40
2018-07-17T10:12:08.768Z,27.40
2018-07-17T10:14:37.277Z,27.50
2018-07-17T10:17:05.701Z,27.60
2018-07-17T10:19:34.170Z,27.70
2018-07-17T10:22:02.683Z,28.00
2018-07-17T10:24:31.062Z,28.10
2018-07-17T10:26:59.607Z,28.10
2018-07-17T10:29:28.043Z,27.90
2018-07-17T10:31:56.491Z,27.90
2018-07-17T10:34:24.944Z,27.70
2018-07-17T10:36:53.362Z,27.40
2018-07-17T10:39:21.864Z,27.40
2018-07-17T10:41:50.473Z,27.50
2018-07-17T10:44:18.953Z,27.60
2018-07-17T10:46:47.351Z,27.50
2018-07-17T10:49:15.770Z,27.50
2018-07-17T10:51:44.321Z,27.70
2018-07-17T10:54:12.765Z,27.70
2018-07-17T10:56:41.292Z,27.80
2018-07-17T10:59:09.769Z,28.00
2018-07-17T11:01:38.328Z,28.10
2018-07-17T11:04:06.821Z,28.10
2018-07-17T11:06:35.273Z,28.00
2018-07-17T11:09:04.956Z,27.70
2018-07-17T11:11:33.418Z,27.50
2018-07-17T11:14:02.744Z,27.40
2018-07-17T11:16:31.436Z,27.60
2018-07-17T11:18:59.868Z,27.80
2018-07-17T11:21:28.448Z,28.00
2018-07-17T11:23:56.845Z,28.30
2018-07-17T11:26:25.328Z,28.20
2018-07-17T11:28:53.796Z,28.30
2018-07-17T11:31:22.205Z,28.20
2018-07-17T11:33:50.699Z,28.40
2018-07-17T11:36:19.161Z,28.40
2018-07-17T11:38:48.868Z,28.00
2018-07-17T11:41:17.457Z,28.10
2018-07-17T11:43:45.908Z,28.30
2018-07-17T11:46:14.338Z,28.30
2018-07-17T11:48:42.803Z,28.50
2018-07-17T11:51:11.284Z,28.70
2018-07-17T11:53:39.750Z,28.80
2018-07-17T11:56:08.345Z,29.00
2018-07-17T11:58:36.773Z,29.20
2018-07-17T12:01:05.324Z,29.30
2018-07-17T12:03:33.760Z,29.20
2018-07-17T12:06:02.222Z,29.60
2018-07-17T12:08:30.701Z,29.80
2018-07-17T12:10:59.119Z,29.80
2018-07-17T12:13:27.637Z,29.70
2018-07-17T12:15:56.203Z,29.40
2018-07-17T12:18:24.687Z,29.50
2018-07-17T12:20:53.208Z,29.00
2018-07-17T12:23:21.676Z,29.10
2018-07-17T12:25:50.852Z,29.30
2018-07-17T12:28:19.328Z,29.20
2018-07-17T12:30:47.816Z,29.10
2018-07-17T12:33:16.248Z,29.00
2018-07-17T12:35:44.660Z,29.50
2018-07-17T12:38:13.136Z,29.60
2018-07-17T12:40:41.553Z,29.20
2018-07-17T12:43:10.064Z,28.70
2018-07-17T12:45:38.544Z,28.40
2018-07-17T12:48:06.955Z,28.60
2018-07-17T12:50:35.464Z,29.00
2018-07-17T12:53:03.953Z,28.90
2018-07-17T12:55:32.397Z,28.80
2018-07-17T12:58:00.833Z,28.80
2018-07-17T13:00:29.370Z,28.90
2018-07-17T13:02:57.806Z,28.90
2018-07-17T13:05:26.208Z,29.20
2018-07-17T13:07:54.886Z,29.40
2018-07-17T13:10:23.382Z,29.60
2018-07-17T13:12:51.981Z,29.50
2018-07-17T13:15:20.469Z,29.50
2018-07-17T13:17:48.952Z,29.40
2018-07-17T13:20:17.397Z,29.30
2018-07-17T13:22:45.821Z,29.10
2018-07-17T13:25:14.270Z,29.20
2018-07-17T13:27:42.782Z,29.20
2018-07-17T13:30:11.281Z,29.10
2018-07-17T13:32:40.082Z,29.40
2018-07-17T13:35:08.752Z,29.50
2018-07-17T13:37:37.313Z,29.90
2018-07-17T13:40:05.744Z,29.70
2018-07-17T13:42:34.308Z,29.50
2018-07-17T13:45:02.804Z,29.70
2018-07-17T13:47:31.816Z,29.70
2018-07-17T13:50:00.304Z,29.70
2018-07-17T13:52:28.716Z,29.70
2018-07-17T13:54:57.432Z,29.70
2018-07-17T13:57:25.900Z,29.90
2018-07-17T13:59:54.415Z,30.10
2018-07-17T14:02:23.168Z,30.00
2018-07-17T14:04:51.633Z,30.10
2018-07-17T14:07:20.111Z,30.30
2018-07-17T14:09:48.601Z,30.00
2018-07-17T14:12:17.340Z,30.00
2018-07-17T14:14:45.813Z,30.00
2018-07-17T14:17:14.288Z,30.30
2018-07-17T14:19:42.764Z,30.40
2018-07-17T14:22:11.404Z,30.30
2018-07-17T14:24:39.913Z,30.30
2018-07-17T14:27:08.368Z,30.30
2018-07-17T14:29:36.878Z,30.10
2018-07-17T14:32:05.386Z,30.00
2018-07-17T14:34:33.850Z,30.00
2018-07-17T14:37:02.335Z,29.80
2018-07-17T14:39:30.764Z,29.80
2018-07-17T14:41:59.177Z,29.60
2018-07-17T14:44:27.729Z,29.70
2018-07-17T14:46:56.261Z,29.80
2018-07-17T14:49:24.734Z,29.80
2018-07-17T14:51:53.208Z,30.10
2018-07-17T14:54:21.683Z,29.80
2018-07-17T14:56:50.147Z,29.70
2018-07-17T14:59:18.557Z,29.80
2018-07-17T15:01:46.985Z,29.80
2018-07-17T15:04:15.413Z,29.80
2018-07-17T15:06:43.867Z,29.60
2018-07-17T15:09:12.284Z,29.70
2018-07-17T15:11:40.685Z,29.80
2018-07-17T15:14:09.100Z,29.70
2018-07-17T15:16:37.582Z,29.60
2018-07-17T15:19:06.300Z,29.70
2018-07-17T15:21:34.753Z,29.70
2018-07-17T15:24:03.219Z,29.70
2018-07-17T15:26:31.666Z,29.60
2018-07-17T15:29:00.547Z,29.40
2018-07-17T15:31:28.937Z,29.20
2018-07-17T15:33:57.368Z,29.20
2018-07-17T15:36:25.833Z,29.30
2018-07-17T15:38:54.355Z,29.50
2018-07-17T15:41:22.757Z,29.60
2018-07-17T15:43:51.281Z,29.20
2018-07-17T15:46:19.666Z,29.60
2018-07-17T15:48:48.141Z,29.60
2018-07-17T15:51:16.604Z,29.50
2018-07-17T15:53:45.149Z,29.50
2018-07-17T15:56:13.625Z,29.50
2018-07-17T15:58:42.089Z,29.40
2018-07-17T16:01:10.622Z,29.50
2018-07-17T16:03:39.278Z,29.30
2018-07-17T16:06:07.697Z,29.00
2018-07-17T16:08:36.111Z,28.90
2018-07-17T16:11:04.897Z,28.60
2018-07-17T16:13:33.477Z,28.70
2018-07-17T16:16:01.800Z,28.50
2018-07-17T16:18:30.241Z,28.30
2018-07-17T16:20:58.759Z,28.20
2018-07-17T16:23:27.356Z,28.30
2018-07-17T16:25:55.760Z,28.30
2018-07-17T16:28:24.137Z,28.30
2018-07-17T16:30:52.561Z,28.30
2018-07-17T16:33:20.996Z,28.40
2018-07-17T16:35:49.510Z,28.30
2018-07-17T16:38:17.988Z,28.10
2018-07-17T16:40:46.421Z,28.00
2018-07-17T16:43:14.836Z,28.00
2018-07-17T16:45:43.380Z,28.10
2018-07-17T16:48:11.844Z,27.90
2018-07-17T16:50:40.302Z,27.80
2018-07-17T16:53:08.809Z,27.60
2018-07-17T16:55:37.434Z,27.40
2018-07-17T16:58:06.358Z,27.40
2018-07-17T17:00:34.969Z,27.30
2018-07-17T17:03:04.599Z,26.90
2018-07-17T17:05:33.022Z,26.70
2018-07-17T17:08:01.545Z,26.60
2018-07-17T17:10:30.446Z,26.30
2018-07-17T17:12:58.894Z,26.30
2018-07-17T17:15:27.348Z,26.20
2018-07-17T17:17:55.866Z,26.20
2018-07-17T17:20:24.376Z,26.20
2018-07-17T17:22:52.864Z,26.10
2018-07-17T17:25:21.302Z,26.00
2018-07-17T17:27:49.784Z,25.80
2018-07-17T17:30:18.270Z,25.50
2018-07-17T17:32:46.814Z,25.20
2018-07-17T17:35:15.225Z,25.10
2018-07-17T17:37:43.659Z,25.00
2018-07-17T17:40:12.295Z,24.80
2018-07-17T17:42:40.732Z,24.60
2018-07-17T17:45:09.287Z,24.10
2018-07-17T17:47:37.708Z,23.60
2018-07-17T17:50:06.268Z,22.70
2018-07-17T17:52:34.743Z,22.20
2018-07-17T17:55:03.234Z,22.00
2018-07-17T17:57:31.797Z,21.90
2018-07-17T18:00:00.449Z,21.80
2018-07-17T18:02:28.931Z,21.50
2018-07-17T18:04:57.468Z,21.40
2018-07-17T18:07:25.880Z,21.50
2018-07-17T18:09:54.345Z,21.50
2018-07-17T18:12:22.861Z,21.40
2018-07-17T18:14:51.267Z,21.40
2018-07-17T18:17:19.660Z,21.40
2018-07-17T18:19:48.213Z,21.50
2018-07-17T18:22:19.547Z,21.60
2018-07-17T18:24:48.068Z,21.70
2018-07-17T18:27:17.032Z,21.80
2018-07-17T18:29:45.518Z,22.00
2018-07-17T18:32:14.016Z,22.20
2018-07-17T18:34:42.445Z,22.30
2018-07-17T18:37:11.404Z,22.40
2018-07-17T18:39:39.857Z,22.50
2018-07-17T18:42:08.616Z,22.60
2018-07-17T18:44:37.111Z,22.80
2018-07-17T18:47:05.548Z,22.80
2018-07-17T18:49:34.035Z,22.90
2018-07-17T18:52:02.597Z,23.00
2018-07-17T18:54:31.054Z,22.90
2018-07-17T18:56:59.554Z,22.80
2018-07-17T18:59:28.082Z,22.80
2018-07-17T19:01:59.300Z,22.80
2018-07-17T19:04:27.772Z,22.60
2018-07-17T19:06:56.224Z,22.50
2018-07-17T19:09:24.720Z,22.50
2018-07-17T19:11:53.179Z,22.40
2018-07-17T19:14:22.192Z,22.10
2018-07-17T19:16:50.753Z,21.90
2018-07-17T19:19:19.208Z,21.80
2018-07-17T19:21:47.649Z,21.60
2018-07-17T19:24:16.185Z,21.50
2018-07-17T19:26:44.599Z,21.40
2018-07-17T19:29:13.142Z,21.30
2018-07-17T19:31:41.665Z,21.20
2018-07-17T19:34:10.109Z,21.10
2018-07-17T19:36:38.571Z,21.00
2018-07-17T19:39:09.575Z,21.00
2018-07-17T19:41:38.045Z,20.90
2018-07-17T19:44:06.520Z,20.90
2018-07-17T19:46:35.031Z,20.80
2018-07-17T19:49:03.514Z,20.70
2018-07-17T19:51:31.974Z,20.70
2018-07-17T19:54:00.381Z,20.60
2018-07-17T19:56:28.852Z,20.50
2018-07-17T19:58:57.372Z,20.40
2018-07-17T20:01:25.808Z,20.40
2018-07-17T20:03:54.372Z,20.30
2018-07-17T20:06:22.817Z,20.30
2018-07-17T20:08:51.260Z,20.20
2018-07-17T20:11:19.676Z,20.20
2018-07-17T20:16:16.334Z,20.10
2018-07-17T20:18:44.759Z,20.10
2018-07-17T20:21:13.386Z,20.00
2018-07-17T20:23:41.860Z,20.00
2018-07-17T20:26:10.469Z,20.00
2018-07-17T20:28:38.888Z,19.90
2018-07-17T20:31:07.569Z,19.80
2018-07-17T20:33:36.209Z,19.80
2018-07-17T20:36:05.009Z,19.80
2018-07-17T20:38:33.576Z,19.80
2018-07-17T20:41:02.044Z,19.80
2018-07-17T20:43:30.507Z,19.80
2018-07-17T20:45:59.009Z,19.80
2018-07-17T20:48:27.488Z,19.80
2018-07-17T20:50:55.964Z,19.80
2018-07-17T20:53:24.412Z,19.70
2018-07-17T20:55:52.870Z,19.70
2018-07-17T20:58:21.340Z,19.60
2018-07-17T21:00:49.895Z,19.60
2018-07-17T21:03:18.401Z,19.60
2018-07-17T21:05:46.917Z,19.70
2018-07-17T21:08:15.389Z,19.70
2018-07-17T21:10:43.800Z,19.80
2018-07-17T21:13:12.351Z,19.80
2018-07-17T21:15:40.751Z,20.00
2018-07-17T21:18:09.203Z,20.00
2018-07-17T21:20:37.635Z,20.00
2018-07-17T21:23:06.113Z,20.00
2018-07-17T21:25:34.518Z,20.00
2018-07-17T21:28:02.935Z,20.00
2018-07-17T21:30:31.588Z,20.00
2018-07-17T21:33:00.140Z,20.00
2018-07-17T21:35:28.588Z,20.00
2018-07-17T21:37:57.112Z,20.00
2018-07-17T21:40:25.565Z,19.90
2018-07-17T21:42:54.048Z,20.00
2018-07-17T21:45:22.457Z,19.80
2018-07-17T21:47:50.920Z,19.80
2018-07-17T21:50:19.368Z,19.80
2018-07-17T21:52:47.820Z,19.80
2018-07-17T21:55:16.262Z,19.80
2018-07-17T21:57:44.664Z,19.70
2018-07-17T22:00:13.216Z,19.70
2018-07-17T22:02:41.733Z,19.50
2018-07-17T22:05:10.180Z,19.50
2018-07-17T22:07:38.573Z,19.50
2018-07-17T22:10:07.053Z,19.40
2018-07-17T22:12:35.516Z,19.40
2018-07-17T22:15:04.029Z,19.30
2018-07-17T22:17:32.416Z,19.30
2018-07-17T22:20:00.857Z,19.40
2018-07-17T22:22:29.315Z,19.30
2018-07-17T22:24:57.784Z,19.30
2018-07-17T22:27:26.300Z,19.40
2018-07-17T22:29:54.740Z,19.40
2018-07-17T22:32:23.162Z,19.40
2018-07-17T22:34:51.572Z,19.40
2018-07-17T22:37:20.061Z,19.40
2018-07-17T22:39:48.484Z,19.40
2018-07-17T22:42:16.904Z,19.30
2018-07-17T22:44:45.381Z,19.30
2018-07-17T22:47:13.872Z,19.30
2018-07-17T22:49:42.436Z,19.20
2018-07-17T22:52:10.852Z,19.20
2018-07-17T22:54:45.898Z,19.20
2018-07-17T22:59:42.448Z,19.10
2018-07-17T23:02:11.169Z,19.10
2018-07-17T23:04:39.608Z,19.10
2018-07-17T23:07:08.113Z,19.10
2018-07-17T23:09:36.640Z,19.00
2018-07-17T23:12:05.115Z,18.90
2018-07-17T23:14:33.636Z,18.80
2018-07-17T23:17:02.106Z,18.80
2018-07-17T23:19:30.566Z,18.90
2018-07-17T23:21:59.121Z,18.90
2018-07-17T23:24:27.530Z,18.90
2018-07-17T23:26:55.974Z,19.00
2018-07-17T23:29:24.718Z,19.00
2018-07-17T23:31:53.131Z,19.00
2018-07-17T23:34:21.774Z,19.00
2018-07-17T23:36:50.147Z,19.00
2018-07-17T23:39:18.608Z,18.90
2018-07-17T23:41:47.056Z,18.90
2018-07-17T23:44:15.522Z,18.80
2018-07-17T23:46:43.904Z,18.70
2018-07-17T23:49:17.741Z,18.70
2018-07-17T23:51:46.157Z,18.70
2018-07-17T23:54:14.624Z,18.70
2018-07-17T23:56:43.066Z,18.60
2018-07-17T23:59:11.477Z,18.60
